createdAt,value
2017-05-01T00:00:11.879Z,0
2017-05-01T00:00:52.391Z,0
2017-05-01T00:01:32.916Z,0
2017-05-01T00:02:13.456Z,0
2017-05-01T00:02:53.991Z,0
2017-05-01T00:03:34.528Z,0
2017-05-01T00:04:15.055Z,0
2017-05-01T00:04:55.559Z,0
2017-05-01T00:05:36.074Z,0
2017-05-01T00:06:16.603Z,0
2017-05-01T00:06:57.116Z,0
2017-05-01T00:07:37.657Z,0
2017-05-01T00:08:18.167Z,0
2017-05-01T00:08:58.691Z,0
2017-05-01T00:09:39.255Z,0
2017-05-01T00:10:19.814Z,0
2017-05-01T00:11:00.356Z,0
2017-05-01T00:11:40.878Z,0
2017-05-01T00:12:21.409Z,0
2017-05-01T00:13:01.932Z,0
2017-05-01T00:13:42.471Z,0
2017-05-01T00:14:23.008Z,0
2017-05-01T00:15:03.541Z,0
2017-05-01T00:15:44.078Z,0
2017-05-01T00:16:24.602Z,0
2017-05-01T00:17:05.141Z,0
2017-05-01T00:17:45.682Z,0
2017-05-01T00:18:26.217Z,0
2017-05-01T00:19:06.748Z,0
2017-05-01T00:19:47.278Z,0
2017-05-01T00:20:27.806Z,0
2017-05-01T00:21:08.357Z,0
2017-05-01T00:21:48.887Z,0
2017-05-01T00:22:29.459Z,0
2017-05-01T00:23:09.956Z,0
2017-05-01T00:23:50.549Z,0
2017-05-01T00:24:31.091Z,0
2017-05-01T00:25:11.618Z,0
2017-05-01T00:25:52.136Z,0
2017-05-01T00:26:32.656Z,0
2017-05-01T00:27:13.258Z,0
2017-05-01T00:27:53.728Z,0
2017-05-01T00:28:34.255Z,0
2017-05-01T00:29:14.774Z,0
2017-05-01T00:29:55.298Z,0
2017-05-01T00:30:35.829Z,0
2017-05-01T00:31:16.325Z,0
2017-05-01T00:31:56.844Z,0
2017-05-01T00:32:37.367Z,0
2017-05-01T00:33:17.889Z,0
2017-05-01T00:33:58.423Z,0
2017-05-01T00:34:38.959Z,0
2017-05-01T00:35:19.495Z,0
2017-05-01T00:36:00.021Z,0
2017-05-01T00:36:40.548Z,0
2017-05-01T00:37:21.074Z,0
2017-05-01T00:38:01.618Z,0
2017-05-01T00:38:42.154Z,0
2017-05-01T00:39:22.698Z,0
2017-05-01T00:40:03.211Z,0
2017-05-01T00:40:43.733Z,0
2017-05-01T00:41:24.255Z,0
2017-05-01T00:42:04.755Z,0
2017-05-01T00:42:45.267Z,0
2017-05-01T00:43:25.795Z,0
2017-05-01T00:44:06.309Z,0
2017-05-01T00:44:46.833Z,0
2017-05-01T00:45:27.356Z,0
2017-05-01T00:46:07.909Z,0
2017-05-01T00:46:48.440Z,0
2017-05-01T00:47:28.977Z,0
2017-05-01T00:48:09.486Z,0
2017-05-01T00:48:50.002Z,0
2017-05-01T00:49:30.521Z,0
2017-05-01T00:50:11.036Z,0
2017-05-01T00:50:51.565Z,0
2017-05-01T00:51:32.067Z,0
2017-05-01T00:52:12.602Z,0
2017-05-01T00:52:53.140Z,0
2017-05-01T00:53:33.682Z,0
2017-05-01T00:54:14.206Z,0
2017-05-01T00:54:54.728Z,0
2017-05-01T00:55:35.259Z,0
2017-05-01T00:56:15.795Z,0
2017-05-01T00:56:56.328Z,0
2017-05-01T00:57:36.853Z,0
2017-05-01T00:58:17.366Z,0
2017-05-01T00:58:57.870Z,0
2017-05-01T00:59:38.388Z,0
2017-05-01T01:00:18.901Z,0
2017-05-01T01:00:59.428Z,0
2017-05-01T01:01:39.942Z,0
2017-05-01T01:02:20.471Z,0
2017-05-01T01:03:00.995Z,0
2017-05-01T01:03:41.511Z,0
2017-05-01T01:04:22.036Z,0
2017-05-01T01:05:02.560Z,0
2017-05-01T01:05:43.084Z,0
2017-05-01T01:06:23.613Z,0
2017-05-01T01:07:04.115Z,0
2017-05-01T01:07:44.632Z,0
2017-05-01T01:08:25.163Z,0
2017-05-01T01:09:05.686Z,0
2017-05-01T01:09:46.212Z,0
2017-05-01T01:10:26.741Z,0
2017-05-01T01:11:07.280Z,0
2017-05-01T01:11:47.833Z,0
2017-05-01T01:12:28.368Z,0
2017-05-01T01:13:08.873Z,0
2017-05-01T01:13:49.382Z,0
2017-05-01T01:14:29.924Z,0
2017-05-01T01:15:10.445Z,0
2017-05-01T01:15:50.950Z,0
2017-05-01T01:16:31.471Z,0
2017-05-01T01:17:11.996Z,0
2017-05-01T01:17:52.518Z,0
2017-05-01T01:18:33.052Z,0
2017-05-01T01:19:13.584Z,0
2017-05-01T01:19:54.135Z,0
2017-05-01T01:20:34.675Z,0
2017-05-01T01:21:15.198Z,0
2017-05-01T01:21:55.708Z,0
2017-05-01T01:22:36.235Z,0
2017-05-01T01:23:16.738Z,0
2017-05-01T01:23:57.266Z,0
2017-05-01T01:24:37.800Z,0
2017-05-01T01:25:18.321Z,0
2017-05-01T01:25:58.835Z,0
2017-05-01T01:26:39.367Z,0
2017-05-01T01:27:19.887Z,0
2017-05-01T01:28:00.406Z,0
2017-05-01T01:28:40.918Z,0
2017-05-01T01:29:21.448Z,0
2017-05-01T01:30:01.969Z,0
2017-05-01T01:30:42.484Z,0
2017-05-01T01:31:23.012Z,0
2017-05-01T01:32:03.534Z,0
2017-05-01T01:32:44.091Z,0
2017-05-01T01:33:24.586Z,0
2017-05-01T01:34:05.115Z,0
2017-05-01T01:34:45.651Z,0
2017-05-01T01:35:26.193Z,0
2017-05-01T01:36:06.726Z,0
2017-05-01T01:36:47.273Z,0
2017-05-01T01:37:27.827Z,0
2017-05-01T01:38:08.345Z,0
2017-05-01T01:38:48.866Z,0
2017-05-01T01:39:29.384Z,0
2017-05-01T01:40:09.919Z,0
2017-05-01T01:40:50.439Z,0
2017-05-01T01:41:30.950Z,0
2017-05-01T01:42:11.483Z,0
2017-05-01T01:42:51.993Z,0
2017-05-01T01:43:32.522Z,0
2017-05-01T01:44:13.050Z,0
2017-05-01T01:44:53.592Z,0
2017-05-01T01:45:34.115Z,0
2017-05-01T01:46:14.654Z,0
2017-05-01T01:46:55.190Z,0
2017-05-01T01:47:35.716Z,0
2017-05-01T01:48:16.216Z,0
2017-05-01T01:48:56.745Z,0
2017-05-01T01:49:37.243Z,0
2017-05-01T01:50:17.774Z,0
2017-05-01T01:50:58.301Z,0
2017-05-01T01:51:38.830Z,0
2017-05-01T01:52:19.370Z,0
2017-05-01T01:52:59.912Z,0
2017-05-01T01:53:40.470Z,0
2017-05-01T01:54:20.981Z,0
2017-05-01T01:55:01.507Z,0
2017-05-01T01:55:42.034Z,0
2017-05-01T01:56:22.576Z,0
2017-05-01T01:57:03.106Z,0
2017-05-01T01:57:43.671Z,0
2017-05-01T01:58:24.217Z,0
2017-05-01T01:59:04.737Z,0
2017-05-01T01:59:45.267Z,0
2017-05-01T02:00:25.789Z,0
2017-05-01T02:01:06.319Z,0
2017-05-01T02:01:46.854Z,0
2017-05-01T02:02:27.382Z,0
2017-05-01T02:03:07.903Z,0
2017-05-01T02:03:48.409Z,0
2017-05-01T02:04:28.942Z,0
2017-05-01T02:05:09.470Z,0
2017-05-01T02:05:49.979Z,0
2017-05-01T02:06:30.503Z,0
2017-05-01T02:07:11.039Z,0
2017-05-01T02:07:51.560Z,0
2017-05-01T02:08:32.089Z,0
2017-05-01T02:09:12.615Z,0
2017-05-01T02:09:53.253Z,0
2017-05-01T02:10:33.767Z,0
2017-05-01T02:11:14.272Z,0
2017-05-01T02:11:54.789Z,0
2017-05-01T02:12:35.313Z,0
2017-05-01T02:13:15.845Z,0
2017-05-01T02:13:56.360Z,0
2017-05-01T02:14:36.887Z,0
2017-05-01T02:15:17.420Z,0
2017-05-01T02:15:57.943Z,0
2017-05-01T02:16:38.478Z,0
2017-05-01T02:17:19.012Z,0
2017-05-01T02:17:59.543Z,0
2017-05-01T02:18:40.071Z,0
2017-05-01T02:19:20.579Z,0
2017-05-01T02:20:01.121Z,0
2017-05-01T02:20:41.653Z,0
2017-05-01T02:21:22.198Z,0
2017-05-01T02:22:02.741Z,0
2017-05-01T02:22:43.271Z,0
2017-05-01T02:23:23.848Z,0
2017-05-01T02:24:04.395Z,0
2017-05-01T02:24:44.924Z,0
2017-05-01T02:25:25.441Z,0
2017-05-01T02:26:05.981Z,0
2017-05-01T02:26:46.517Z,0
2017-05-01T02:27:27.051Z,0
2017-05-01T02:28:07.575Z,0
2017-05-01T02:28:48.098Z,0
2017-05-01T02:29:28.623Z,0
2017-05-01T02:30:09.169Z,0
2017-05-01T02:30:49.688Z,0
2017-05-01T02:31:30.190Z,0
2017-05-01T02:32:10.692Z,0
2017-05-01T02:32:51.217Z,0
2017-05-01T02:33:31.747Z,0
2017-05-01T02:34:12.275Z,0
2017-05-01T02:34:52.792Z,0
2017-05-01T02:35:33.312Z,0
2017-05-01T02:36:13.836Z,0
2017-05-01T02:36:54.353Z,0
2017-05-01T02:37:34.899Z,0
2017-05-01T02:38:15.428Z,0
2017-05-01T02:38:55.958Z,0
2017-05-01T02:39:36.483Z,0
2017-05-01T02:40:17.036Z,0
2017-05-01T02:40:57.574Z,0
2017-05-01T02:41:38.108Z,0
2017-05-01T02:42:18.648Z,0
2017-05-01T02:42:59.174Z,0
2017-05-01T02:43:39.687Z,0
2017-05-01T02:44:20.221Z,0
2017-05-01T02:45:00.747Z,0
2017-05-01T02:45:41.247Z,0
2017-05-01T02:46:21.769Z,0
2017-05-01T02:47:02.316Z,0
2017-05-01T02:47:42.826Z,0
2017-05-01T02:48:23.394Z,0
2017-05-01T02:49:03.876Z,0
2017-05-01T02:49:44.410Z,0
2017-05-01T02:50:24.925Z,0
2017-05-01T02:51:05.453Z,0
2017-05-01T02:51:45.984Z,0
2017-05-01T02:52:26.533Z,0
2017-05-01T02:53:07.068Z,0
2017-05-01T02:53:47.577Z,0
2017-05-01T02:54:28.106Z,0
2017-05-01T02:55:08.624Z,0
2017-05-01T02:55:49.162Z,0
2017-05-01T02:56:29.700Z,0
2017-05-01T02:57:10.207Z,0
2017-05-01T02:57:50.747Z,0
2017-05-01T02:58:31.283Z,0
2017-05-01T02:59:11.814Z,0
2017-05-01T02:59:52.348Z,0
2017-05-01T03:00:32.864Z,0
2017-05-01T03:01:13.432Z,0
2017-05-01T03:01:53.955Z,0
2017-05-01T03:02:34.485Z,0
2017-05-01T03:03:15.012Z,0
2017-05-01T03:03:55.536Z,0
2017-05-01T03:04:36.072Z,0
2017-05-01T03:05:16.602Z,0
2017-05-01T03:05:57.136Z,0
2017-05-01T03:06:37.695Z,0
2017-05-01T03:07:18.296Z,0
2017-05-01T03:07:58.812Z,0
2017-05-01T03:08:39.340Z,0
2017-05-01T03:09:19.854Z,0
2017-05-01T03:10:00.364Z,0
2017-05-01T03:10:40.887Z,0
2017-05-01T03:11:21.424Z,0
2017-05-01T03:12:01.919Z,0
2017-05-01T03:12:42.447Z,0
2017-05-01T03:13:22.973Z,0
2017-05-01T03:14:03.484Z,0
2017-05-01T03:14:43.997Z,0
2017-05-01T03:15:24.523Z,0
2017-05-01T03:16:05.032Z,0
2017-05-01T03:16:45.565Z,0
2017-05-01T03:17:26.097Z,0
2017-05-01T03:18:06.624Z,0
2017-05-01T03:18:47.161Z,0
2017-05-01T03:19:27.674Z,0
2017-05-01T03:20:08.195Z,0
2017-05-01T03:20:48.703Z,0
2017-05-01T03:21:29.238Z,0
2017-05-01T03:22:09.744Z,0
2017-05-01T03:22:50.278Z,0
2017-05-01T03:23:30.819Z,0
2017-05-01T03:24:11.351Z,0
2017-05-01T03:24:51.867Z,0
2017-05-01T03:25:32.392Z,0
2017-05-01T03:26:12.912Z,0
2017-05-01T03:26:53.433Z,0
2017-05-01T03:27:33.950Z,0
2017-05-01T03:28:14.497Z,0
2017-05-01T03:28:55.042Z,0
2017-05-01T03:29:35.517Z,0
2017-05-01T03:30:16.008Z,0
2017-05-01T03:30:56.509Z,0
2017-05-01T03:31:37.058Z,0
2017-05-01T03:32:17.541Z,0
2017-05-01T03:32:58.077Z,0
2017-05-01T03:33:38.589Z,0
2017-05-01T03:34:19.102Z,0
2017-05-01T03:34:59.697Z,0
2017-05-01T03:35:40.166Z,0
2017-05-01T03:36:20.657Z,0
2017-05-01T03:37:01.168Z,0
2017-05-01T03:37:41.747Z,0
2017-05-01T03:38:22.261Z,0
2017-05-01T03:39:02.761Z,0
2017-05-01T03:39:43.279Z,0
2017-05-01T03:40:23.821Z,0
2017-05-01T03:41:04.356Z,0
2017-05-01T03:41:44.915Z,0
2017-05-01T03:42:25.421Z,0
2017-05-01T03:43:05.971Z,0
2017-05-01T03:43:46.437Z,0
2017-05-01T03:44:26.987Z,0
2017-05-01T03:45:07.537Z,0
2017-05-01T03:45:48.055Z,0
2017-05-01T03:46:28.609Z,0
2017-05-01T03:47:09.145Z,0
2017-05-01T03:47:49.687Z,0
2017-05-01T03:48:30.205Z,0
2017-05-01T03:49:10.754Z,0
2017-05-01T03:49:51.223Z,0
2017-05-01T03:50:31.758Z,0
2017-05-01T03:51:12.261Z,0
2017-05-01T03:51:52.824Z,0
2017-05-01T03:52:33.271Z,0
2017-05-01T03:53:13.821Z,0
2017-05-01T03:53:54.438Z,0
2017-05-01T03:54:34.875Z,0
2017-05-01T03:55:15.394Z,0
2017-05-01T03:55:55.941Z,0
2017-05-01T03:56:36.487Z,0
2017-05-01T03:57:17.004Z,0
2017-05-01T03:57:57.507Z,0
2017-05-01T03:58:37.999Z,0
2017-05-01T03:59:18.546Z,0
2017-05-01T03:59:59.091Z,0
2017-05-01T04:00:39.649Z,0
2017-05-01T04:01:20.246Z,0
2017-05-01T04:02:00.774Z,0
2017-05-01T04:02:41.321Z,0
2017-05-01T04:03:21.880Z,0
2017-05-01T04:04:02.427Z,0
2017-05-01T04:04:42.971Z,0
2017-05-01T04:05:23.508Z,0
2017-05-01T04:06:04.031Z,0
2017-05-01T04:06:44.580Z,0
2017-05-01T04:07:25.107Z,0
2017-05-01T04:08:05.682Z,0
2017-05-01T04:08:46.207Z,0
2017-05-01T04:09:26.714Z,0
2017-05-01T04:10:07.245Z,0
2017-05-01T04:10:47.782Z,0
2017-05-01T04:11:28.321Z,0
2017-05-01T04:12:08.813Z,0
2017-05-01T04:12:49.334Z,0
2017-05-01T04:13:29.861Z,0
2017-05-01T04:14:10.400Z,0
2017-05-01T04:14:50.940Z,0
2017-05-01T04:15:31.473Z,0
2017-05-01T04:16:11.998Z,0
2017-05-01T04:16:52.514Z,0
2017-05-01T04:17:33.036Z,0
2017-05-01T04:18:13.564Z,0
2017-05-01T04:18:54.076Z,0
2017-05-01T04:19:34.592Z,0
2017-05-01T04:20:15.111Z,5
2017-05-01T04:20:55.647Z,5
2017-05-01T04:21:36.181Z,5
2017-05-01T04:22:16.762Z,5
2017-05-01T04:22:57.296Z,5
2017-05-01T04:23:37.842Z,5
2017-05-01T04:24:18.377Z,5
2017-05-01T04:24:58.907Z,5
2017-05-01T04:25:39.487Z,5
2017-05-01T04:26:20.025Z,5
2017-05-01T04:27:00.569Z,5
2017-05-01T04:27:41.100Z,5
2017-05-01T04:28:21.639Z,5
2017-05-01T04:29:02.166Z,5
2017-05-01T04:29:42.709Z,5
2017-05-01T04:30:23.245Z,5
2017-05-01T04:31:03.782Z,5
2017-05-01T04:31:44.318Z,5
2017-05-01T04:32:24.869Z,10
2017-05-01T04:33:05.395Z,10
2017-05-01T04:33:45.919Z,10
2017-05-01T04:34:26.451Z,10
2017-05-01T04:35:06.970Z,10
2017-05-01T04:35:47.478Z,10
2017-05-01T04:36:28.015Z,10
2017-05-01T04:37:08.552Z,10
2017-05-01T04:37:49.068Z,10
2017-05-01T04:38:29.595Z,10
2017-05-01T04:39:10.110Z,10
2017-05-01T04:39:50.646Z,10
2017-05-01T04:40:31.171Z,10
2017-05-01T04:41:11.693Z,10
2017-05-01T04:41:52.223Z,10
2017-05-01T04:42:32.757Z,10
2017-05-01T04:43:13.289Z,10
2017-05-01T04:43:53.839Z,10
2017-05-01T04:44:34.369Z,10
2017-05-01T04:45:14.905Z,10
2017-05-01T04:45:55.421Z,10
2017-05-01T04:46:35.948Z,10
2017-05-01T04:47:16.469Z,10
2017-05-01T04:47:57.002Z,10
2017-05-01T04:48:37.538Z,10
2017-05-01T04:49:18.070Z,15
2017-05-01T04:49:58.635Z,15
2017-05-01T04:50:39.178Z,15
2017-05-01T04:51:19.701Z,15
2017-05-01T04:52:00.222Z,15
2017-05-01T04:52:40.721Z,15
2017-05-01T04:53:21.305Z,15
2017-05-01T04:54:01.826Z,15
2017-05-01T04:54:42.351Z,15
2017-05-01T04:55:22.881Z,15
2017-05-01T04:56:03.408Z,15
2017-05-01T04:56:43.923Z,15
2017-05-01T04:57:24.450Z,15
2017-05-01T04:58:05.009Z,20
2017-05-01T04:58:45.487Z,20
2017-05-01T04:59:26.017Z,20
2017-05-01T05:00:06.528Z,20
2017-05-01T05:00:47.062Z,20
2017-05-01T05:01:27.589Z,20
2017-05-01T05:02:08.143Z,20
2017-05-01T05:02:48.677Z,20
2017-05-01T05:03:29.205Z,20
2017-05-01T05:04:09.734Z,20
2017-05-01T05:04:50.256Z,20
2017-05-01T05:05:30.787Z,20
2017-05-01T05:06:11.341Z,20
2017-05-01T05:06:51.875Z,20
2017-05-01T05:09:26.433Z,15
2017-05-01T05:10:06.964Z,15
2017-05-01T05:10:47.526Z,15
2017-05-01T05:11:28.053Z,15
2017-05-01T05:12:08.600Z,15
2017-05-01T05:12:49.162Z,15
2017-05-01T05:13:29.680Z,15
2017-05-01T05:14:10.239Z,15
2017-05-01T05:14:50.777Z,15
2017-05-01T05:15:31.327Z,15
2017-05-01T05:16:11.867Z,15
2017-05-01T05:16:52.391Z,15
2017-05-01T05:17:32.927Z,15
2017-05-01T05:18:13.447Z,15
2017-05-01T05:18:53.985Z,15
2017-05-01T05:19:34.487Z,15
2017-05-01T05:20:15.031Z,15
2017-05-01T05:20:55.559Z,15
2017-05-01T05:21:36.096Z,20
2017-05-01T05:22:16.626Z,20
2017-05-01T05:22:57.138Z,20
2017-05-01T05:23:37.677Z,20
2017-05-01T05:24:18.199Z,20
2017-05-01T05:24:58.743Z,25
2017-05-01T05:25:39.239Z,25
2017-05-01T05:26:19.749Z,25
2017-05-01T05:27:00.319Z,30
2017-05-01T05:27:40.857Z,30
2017-05-01T05:28:21.391Z,30
2017-05-01T05:29:01.900Z,35
2017-05-01T05:29:42.408Z,35
2017-05-01T05:30:22.948Z,35
2017-05-01T05:31:03.502Z,35
2017-05-01T05:31:44.069Z,35
2017-05-01T05:32:24.596Z,35
2017-05-01T05:33:05.151Z,40
2017-05-01T05:33:45.652Z,40
2017-05-01T05:34:26.231Z,40
2017-05-01T05:35:06.745Z,40
2017-05-01T05:35:47.264Z,40
2017-05-01T05:36:27.783Z,45
2017-05-01T05:37:08.300Z,45
2017-05-01T05:37:48.834Z,45
2017-05-01T05:38:29.350Z,45
2017-05-01T05:39:09.869Z,50
2017-05-01T05:39:50.404Z,50
2017-05-01T05:40:30.928Z,50
2017-05-01T05:41:11.455Z,50
2017-05-01T05:41:51.993Z,50
2017-05-01T05:42:32.523Z,55
2017-05-01T05:43:13.036Z,55
2017-05-01T05:43:53.562Z,55
2017-05-01T05:44:34.087Z,50
2017-05-01T05:45:14.609Z,50
2017-05-01T05:45:55.124Z,40
2017-05-01T05:46:35.656Z,40
2017-05-01T05:47:16.193Z,35
2017-05-01T05:47:56.734Z,35
2017-05-01T05:48:37.230Z,35
2017-05-01T05:49:17.759Z,35
2017-05-01T05:49:58.291Z,35
2017-05-01T05:50:38.877Z,30
2017-05-01T05:51:19.672Z,25
2017-05-01T05:52:00.255Z,25
2017-05-01T05:52:40.796Z,25
2017-05-01T05:53:21.394Z,25
2017-05-01T05:54:01.863Z,25
2017-05-01T05:54:42.378Z,30
2017-05-01T05:55:22.910Z,30
2017-05-01T05:56:03.422Z,35
2017-05-01T05:56:43.952Z,45
2017-05-01T05:57:24.489Z,45
2017-05-01T05:58:05.007Z,45
2017-05-01T05:58:45.525Z,45
2017-05-01T05:59:26.045Z,45
2017-05-01T06:00:06.570Z,40
2017-05-01T06:00:47.099Z,40
2017-05-01T06:01:27.618Z,40
2017-05-01T06:02:08.137Z,40
2017-05-01T06:02:48.646Z,45
2017-05-01T06:03:29.167Z,45
2017-05-01T06:04:09.675Z,40
2017-05-01T06:04:50.211Z,35
2017-05-01T06:05:30.719Z,35
2017-05-01T06:06:11.239Z,35
2017-05-01T06:06:51.786Z,30
2017-05-01T06:07:32.313Z,30
2017-05-01T06:08:12.829Z,30
2017-05-01T06:08:53.345Z,35
2017-05-01T06:09:33.877Z,35
2017-05-01T06:10:14.418Z,40
2017-05-01T06:10:54.954Z,40
2017-05-01T06:11:35.475Z,45
2017-05-01T06:12:15.997Z,45
2017-05-01T06:12:56.526Z,50
2017-05-01T06:13:37.058Z,50
2017-05-01T06:14:17.605Z,50
2017-05-01T06:14:58.122Z,55
2017-05-01T06:15:38.651Z,55
2017-05-01T06:16:19.179Z,55
2017-05-01T06:16:59.724Z,55
2017-05-01T06:17:40.254Z,55
2017-05-01T06:18:20.779Z,55
2017-05-01T06:19:01.304Z,55
2017-05-01T06:19:41.823Z,55
2017-05-01T06:20:22.360Z,55
2017-05-01T06:21:02.883Z,60
2017-05-01T06:21:43.417Z,60
2017-05-01T06:22:23.957Z,55
2017-05-01T06:23:04.463Z,60
2017-05-01T06:23:44.993Z,60
2017-05-01T06:24:25.509Z,60
2017-05-01T06:25:06.045Z,55
2017-05-01T06:25:46.577Z,55
2017-05-01T06:26:27.107Z,55
2017-05-01T06:27:07.636Z,55
2017-05-01T06:27:48.156Z,55
2017-05-01T06:28:28.692Z,55
2017-05-01T06:29:09.224Z,55
2017-05-01T06:29:49.761Z,60
2017-05-01T06:30:30.312Z,60
2017-05-01T06:31:10.840Z,60
2017-05-01T06:31:51.367Z,60
2017-05-01T06:32:31.893Z,60
2017-05-01T06:33:12.432Z,60
2017-05-01T06:33:52.995Z,65
2017-05-01T06:34:33.513Z,65
2017-05-01T06:35:14.038Z,65
2017-05-01T06:35:54.571Z,65
2017-05-01T06:36:35.092Z,65
2017-05-01T06:37:15.633Z,65
2017-05-01T06:37:56.165Z,60
2017-05-01T06:38:36.693Z,60
2017-05-01T06:39:17.224Z,60
2017-05-01T06:39:57.755Z,60
2017-05-01T06:40:38.276Z,60
2017-05-01T06:41:18.818Z,55
2017-05-01T06:41:59.352Z,55
2017-05-01T06:42:39.904Z,55
2017-05-01T06:43:20.435Z,55
2017-05-01T06:44:00.968Z,50
2017-05-01T06:44:41.491Z,50
2017-05-01T06:45:22.019Z,50
2017-05-01T06:46:02.539Z,50
2017-05-01T06:46:43.057Z,50
2017-05-01T06:47:23.574Z,50
2017-05-01T06:48:04.079Z,45
2017-05-01T06:48:44.578Z,45
2017-05-01T06:49:25.086Z,45
2017-05-01T06:50:05.620Z,45
2017-05-01T06:50:46.149Z,45
2017-05-01T06:51:26.690Z,50
2017-05-01T06:52:07.222Z,50
2017-05-01T06:52:47.782Z,45
2017-05-01T06:53:28.273Z,45
2017-05-01T06:54:08.806Z,45
2017-05-01T06:54:49.343Z,45
2017-05-01T06:55:29.876Z,45
2017-05-01T06:56:10.414Z,45
2017-05-01T06:56:50.943Z,45
2017-05-01T06:57:31.478Z,45
2017-05-01T06:58:12.011Z,45
2017-05-01T06:58:52.546Z,50
2017-05-01T06:59:33.082Z,50
2017-05-01T07:00:13.620Z,50
2017-05-01T07:00:54.150Z,50
2017-05-01T07:01:34.672Z,45
2017-05-01T07:02:15.204Z,55
2017-05-01T07:02:55.718Z,60
2017-05-01T07:03:36.232Z,60
2017-05-01T07:04:16.754Z,60
2017-05-01T07:04:57.256Z,65
2017-05-01T07:05:37.818Z,65
2017-05-01T07:06:18.339Z,70
2017-05-01T07:06:58.851Z,75
2017-05-01T07:07:39.533Z,75
2017-05-01T07:08:20.026Z,80
2017-05-01T07:09:00.585Z,80
2017-05-01T07:09:41.121Z,85
2017-05-01T07:10:21.907Z,90
2017-05-01T07:11:03.741Z,95
2017-05-01T07:11:44.266Z,95
2017-05-01T07:12:24.797Z,95
2017-05-01T07:13:05.316Z,95
2017-05-01T07:13:45.851Z,95
2017-05-01T07:14:26.384Z,95
2017-05-01T07:15:06.911Z,100
2017-05-01T07:15:47.444Z,100
2017-05-01T07:16:27.975Z,100
2017-05-01T07:17:08.505Z,100
2017-05-01T07:17:49.030Z,100
2017-05-01T07:18:29.550Z,95
2017-05-01T07:19:10.098Z,100
2017-05-01T07:19:50.629Z,100
2017-05-01T07:20:31.171Z,105
2017-05-01T07:21:11.705Z,110
2017-05-01T07:21:52.228Z,110
2017-05-01T07:22:32.762Z,110
2017-05-01T07:23:13.295Z,110
2017-05-01T07:23:53.834Z,115
2017-05-01T07:24:34.362Z,120
2017-05-01T07:25:14.899Z,125
2017-05-01T07:25:55.430Z,130
2017-05-01T07:26:35.964Z,135
2017-05-01T07:27:16.491Z,135
2017-05-01T07:27:57.012Z,135
2017-05-01T07:28:37.546Z,135
2017-05-01T07:29:18.063Z,135
2017-05-01T07:29:58.604Z,140
2017-05-01T07:30:39.134Z,140
2017-05-01T07:31:19.643Z,140
2017-05-01T07:32:00.158Z,145
2017-05-01T07:32:40.687Z,145
2017-05-01T07:33:21.214Z,145
2017-05-01T07:34:01.743Z,145
2017-05-01T07:34:42.256Z,145
2017-05-01T07:35:22.792Z,145
2017-05-01T07:36:03.335Z,145
2017-05-01T07:36:43.863Z,145
2017-05-01T07:37:24.405Z,145
2017-05-01T07:38:04.937Z,145
2017-05-01T07:38:45.464Z,140
2017-05-01T07:39:25.988Z,140
2017-05-01T07:40:06.520Z,135
2017-05-01T07:40:47.049Z,135
2017-05-01T07:41:27.584Z,135
2017-05-01T07:42:08.115Z,135
2017-05-01T07:42:48.645Z,135
2017-05-01T07:43:29.184Z,135
2017-05-01T07:44:09.711Z,135
2017-05-01T07:44:50.250Z,130
2017-05-01T07:45:30.766Z,130
2017-05-01T07:46:11.296Z,135
2017-05-01T07:46:51.849Z,140
2017-05-01T07:47:32.395Z,140
2017-05-01T07:48:12.927Z,145
2017-05-01T07:48:53.445Z,150
2017-05-01T07:49:33.970Z,150
2017-05-01T07:50:14.488Z,150
2017-05-01T07:50:55.010Z,150
2017-05-01T07:51:35.538Z,150
2017-05-01T07:52:16.080Z,145
2017-05-01T07:52:56.587Z,140
2017-05-01T07:53:37.105Z,140
2017-05-01T07:54:17.629Z,140
2017-05-01T07:54:58.167Z,140
2017-05-01T07:55:38.702Z,135
2017-05-01T07:56:19.248Z,135
2017-05-01T07:56:59.776Z,135
2017-05-01T07:57:40.295Z,135
2017-05-01T07:58:20.820Z,140
2017-05-01T07:59:01.353Z,145
2017-05-01T07:59:41.906Z,145
2017-05-01T08:00:22.430Z,150
2017-05-01T08:01:02.948Z,150
2017-05-01T08:01:43.509Z,150
2017-05-01T08:02:24.036Z,155
2017-05-01T08:03:04.556Z,155
2017-05-01T08:03:45.094Z,155
2017-05-01T08:04:25.625Z,160
2017-05-01T08:05:06.148Z,160
2017-05-01T08:05:46.680Z,160
2017-05-01T08:06:27.226Z,160
2017-05-01T08:07:07.764Z,160
2017-05-01T08:07:48.288Z,160
2017-05-01T08:08:28.824Z,155
2017-05-01T08:09:09.333Z,160
2017-05-01T08:09:49.864Z,165
2017-05-01T08:10:30.391Z,175
2017-05-01T08:11:10.926Z,160
2017-05-01T08:11:51.458Z,165
2017-05-01T08:12:31.984Z,165
2017-05-01T08:13:12.528Z,170
2017-05-01T08:13:53.040Z,170
2017-05-01T08:14:33.557Z,170
2017-05-01T08:15:14.072Z,170
2017-05-01T08:15:54.667Z,170
2017-05-01T08:16:35.190Z,170
2017-05-01T08:17:15.719Z,175
2017-05-01T08:17:56.263Z,170
2017-05-01T08:18:36.784Z,175
2017-05-01T08:19:17.313Z,175
2017-05-01T08:19:57.844Z,175
2017-05-01T08:20:38.375Z,180
2017-05-01T08:21:18.914Z,185
2017-05-01T08:21:59.451Z,185
2017-05-01T08:22:39.962Z,185
2017-05-01T08:23:20.488Z,175
2017-05-01T08:24:01.040Z,170
2017-05-01T08:24:41.570Z,165
2017-05-01T08:25:22.103Z,165
2017-05-01T08:26:02.622Z,165
2017-05-01T08:26:43.160Z,180
2017-05-01T08:27:23.682Z,190
2017-05-01T08:28:04.217Z,210
2017-05-01T08:28:44.736Z,195
2017-05-01T08:29:25.253Z,190
2017-05-01T08:30:05.788Z,185
2017-05-01T08:30:46.321Z,180
2017-05-01T08:31:26.823Z,185
2017-05-01T08:32:07.353Z,190
2017-05-01T08:32:47.879Z,185
2017-05-01T08:33:28.413Z,185
2017-05-01T08:34:08.927Z,180
2017-05-01T08:34:49.460Z,155
2017-05-01T08:35:29.990Z,155
2017-05-01T08:36:10.521Z,155
2017-05-01T08:36:51.049Z,175
2017-05-01T08:37:31.576Z,175
2017-05-01T08:38:12.105Z,170
2017-05-01T08:38:52.647Z,170
2017-05-01T08:39:33.176Z,165
2017-05-01T08:40:13.705Z,165
2017-05-01T08:40:54.238Z,160
2017-05-01T08:41:34.772Z,160
2017-05-01T08:42:15.302Z,155
2017-05-01T08:42:55.824Z,165
2017-05-01T08:43:36.415Z,160
2017-05-01T08:44:16.903Z,160
2017-05-01T08:44:57.413Z,160
2017-05-01T08:45:37.948Z,160
2017-05-01T08:46:18.481Z,160
2017-05-01T08:46:59.007Z,160
2017-05-01T08:47:39.518Z,155
2017-05-01T08:48:20.082Z,155
2017-05-01T08:49:00.580Z,165
2017-05-01T08:49:41.118Z,170
2017-05-01T08:50:21.634Z,175
2017-05-01T08:51:02.159Z,170
2017-05-01T08:51:42.699Z,170
2017-05-01T08:52:23.237Z,180
2017-05-01T08:53:03.760Z,175
2017-05-01T08:53:44.279Z,170
2017-05-01T08:54:24.817Z,175
2017-05-01T08:55:05.344Z,170
2017-05-01T08:55:45.844Z,160
2017-05-01T08:56:26.377Z,160
2017-05-01T08:57:06.909Z,160
2017-05-01T08:57:47.465Z,180
2017-05-01T08:58:27.987Z,185
2017-05-01T08:59:08.533Z,195
2017-05-01T08:59:49.067Z,200
2017-05-01T09:00:29.607Z,205
2017-05-01T09:01:10.134Z,200
2017-05-01T09:01:50.662Z,200
2017-05-01T09:02:31.206Z,200
2017-05-01T09:03:11.736Z,195
2017-05-01T09:03:52.264Z,190
2017-05-01T09:04:32.784Z,190
2017-05-01T09:05:13.323Z,185
2017-05-01T09:05:53.851Z,190
2017-05-01T09:06:34.370Z,190
2017-05-01T09:07:14.889Z,185
2017-05-01T09:07:55.414Z,185
2017-05-01T09:08:36.026Z,185
2017-05-01T09:09:16.547Z,175
2017-05-01T09:09:57.075Z,175
2017-05-01T09:10:37.585Z,180
2017-05-01T09:11:18.098Z,180
2017-05-01T09:11:58.624Z,185
2017-05-01T09:12:39.153Z,190
2017-05-01T09:13:19.683Z,205
2017-05-01T09:14:00.202Z,205
2017-05-01T09:14:40.732Z,200
2017-05-01T09:15:21.256Z,190
2017-05-01T09:16:01.801Z,190
2017-05-01T09:16:42.334Z,185
2017-05-01T09:17:22.860Z,185
2017-05-01T09:18:03.386Z,185
2017-05-01T09:18:43.926Z,185
2017-05-01T09:19:24.453Z,200
2017-05-01T09:20:04.984Z,205
2017-05-01T09:20:45.518Z,195
2017-05-01T09:21:26.050Z,200
2017-05-01T09:22:06.575Z,215
2017-05-01T09:22:47.112Z,220
2017-05-01T09:23:27.650Z,220
2017-05-01T09:24:08.180Z,230
2017-05-01T09:24:48.700Z,225
2017-05-01T09:25:29.237Z,230
2017-05-01T09:26:09.758Z,230
2017-05-01T09:26:50.305Z,230
2017-05-01T09:27:30.818Z,230
2017-05-01T09:28:11.317Z,235
2017-05-01T09:28:51.857Z,230
2017-05-01T09:29:32.370Z,225
2017-05-01T09:30:12.894Z,225
2017-05-01T09:30:53.417Z,235
2017-05-01T09:31:33.932Z,230
2017-05-01T09:32:14.450Z,215
2017-05-01T09:32:54.974Z,205
2017-05-01T09:33:35.517Z,215
2017-05-01T09:34:16.031Z,210
2017-05-01T09:34:56.550Z,220
2017-05-01T09:35:37.089Z,215
2017-05-01T09:36:17.627Z,230
2017-05-01T09:36:58.157Z,215
2017-05-01T09:37:38.688Z,210
2017-05-01T09:38:19.215Z,205
2017-05-01T09:38:59.728Z,210
2017-05-01T09:39:40.261Z,210
2017-05-01T09:40:20.754Z,215
2017-05-01T09:41:01.282Z,205
2017-05-01T09:41:41.818Z,200
2017-05-01T09:42:22.344Z,200
2017-05-01T09:43:02.842Z,200
2017-05-01T09:43:43.382Z,200
2017-05-01T09:44:23.909Z,195